Time;durP1;ratioP1;P1;durP2;ratioP2;P2;SDS_P1;SDS_P2;PMS_P1;PMS_P2;Temp;Humidity;BMP_temperature;BMP_pressure;BME280_temperature;BME280_humidity;BME280_pressure;Samples;Min_cycle;Max_cycle;Signal;HPM_P1;HPM_P2
2022/03/31 00:02:30;;;;;;;1.60;1.50;;;;;;;1.78;100.00;100395.28;10376404;28;20459;-76
2022/03/31 00:07:30;;;;;;;2.00;1.90;;;;;;;1.75;100.00;100392.91;10376649;28;20061;-76
2022/03/31 00:12:31;;;;;;;2.20;2.10;;;;;;;1.77;100.00;100372.25;10375458;28;20057;-76
2022/03/31 00:17:31;;;;;;;2.55;2.38;;;;;;;1.84;100.00;100375.13;10375473;28;20033;-75
2022/03/31 00:22:32;;;;;;;3.28;2.00;;;;;;;1.83;100.00;100370.81;10375284;28;20080;-76
2022/03/31 00:27:32;;;;;;;2.70;2.15;;;;;;;1.94;100.00;100378.56;10375330;28;20030;-76
2022/03/31 00:32:33;;;;;;;2.70;2.55;;;;;;;1.98;100.00;100363.94;10376593;28;20251;-76
2022/03/31 00:37:33;;;;;;;3.28;2.47;;;;;;;1.96;100.00;100355.22;10375653;28;20026;-76
2022/03/31 00:42:38;;;;;;;1.42;1.42;;;;;;;1.77;100.00;100356.22;10358265;28;21902;-76
2022/03/31 00:47:39;;;;;;;2.33;2.22;;;;;;;1.67;100.00;100368.81;10374364;28;20032;-75
2022/03/31 00:52:40;;;;;;;2.33;1.83;;;;;;;1.54;100.00;100363.88;10375217;28;20041;-76
2022/03/31 00:57:40;;;;;;;3.70;2.47;;;;;;;1.58;100.00;100365.25;10373280;28;20374;-76
2022/03/31 01:02:41;;;;;;;1.65;1.60;;;;;;;1.58;100.00;100362.56;10357276;28;20027;-76
2022/03/31 01:07:41;;;;;;;2.78;1.92;;;;;;;1.57;100.00;100358.22;10357937;28;20030;-76
2022/03/31 01:12:42;;;;;;;2.60;2.20;;;;;;;1.52;100.00;100346.34;10375061;28;20074;-76
2022/03/31 01:17:44;;;;;;;3.03;2.83;;;;;;;1.45;100.00;100350.59;10374730;28;20049;-75
2022/03/31 01:22:45;;;;;;;2.25;2.15;;;;;;;1.30;100.00;100340.44;10376722;28;20133;-75
2022/03/31 01:27:46;;;;;;;2.50;2.40;;;;;;;1.30;100.00;100340.44;10382623;28;20030;-75
2022/03/31 01:32:46;;;;;;;2.83;2.50;;;;;;;1.31;100.00;100335.97;10381431;28;20030;-75
2022/03/31 01:37:47;;;;;;;3.25;3.05;;;;;;;1.23;100.00;100336.72;10382612;28;20088;-75
2022/03/31 01:42:47;;;;;;;5.82;2.58;;;;;;;1.20;100.00;100336.19;10383220;28;20536;-74
2022/03/31 01:47:48;;;;;;;2.70;2.50;;;;;;;1.24;100.00;100337.53;10380891;28;20104;-75
2022/03/31 01:52:48;;;;;;;3.75;3.28;;;;;;;1.25;100.00;100325.91;10382921;28;20042;-75
2022/03/31 01:57:49;;;;;;;4.15;3.03;;;;;;;1.25;100.00;100318.75;10380095;28;20033;-74
2022/03/31 02:02:49;;;;;;;2.83;2.63;;;;;;;1.30;100.00;100323.59;10380399;28;20038;-74
2022/03/31 02:07:56;;;;;;;3.70;2.80;;;;;;;1.39;100.00;100325.38;10380903;28;20057;-75
2022/03/31 02:12:57;;;;;;;3.67;3.00;;;;;;;1.51;100.00;100332.16;10379702;28;20040;-74
2022/03/31 02:18:38;;;;;;;3.40;3.08;;;;;;;1.48;100.00;100335.13;10379110;28;20038;-74
2022/03/31 02:23:39;;;;;;;2.85;2.65;;;;;;;1.51;100.00;100324.16;10381500;28;20450;-75
2022/03/31 02:28:42;;;;;;;6.65;3.47;;;;;;;1.50;100.00;100316.28;10380494;28;20044;-74
2022/03/31 02:33:45;;;;;;;4.13;2.40;;;;;;;1.48;100.00;100305.78;10378183;28;20041;-74
2022/03/31 02:38:46;;;;;;;3.95;2.85;;;;;;;1.53;100.00;100313.31;10362501;28;20117;-74
2022/03/31 02:43:49;;;;;;;2.92;2.63;;;;;;;1.59;100.00;100302.03;10379721;28;20113;-75
2022/03/31 02:48:51;;;;;;;3.22;2.85;;;;;;;1.63;100.00;100284.72;10381270;28;20423;-75
2022/03/31 02:59:11;;;;;;;3.53;3.33;;;;;;;1.75;100.00;100278.13;10379955;28;20022;-75
2022/03/31 03:04:11;;;;;;;3.90;3.60;;;;;;;1.67;100.00;100288.75;10378841;28;20046;-74
2022/03/31 03:09:12;;;;;;;4.07;3.70;;;;;;;1.63;100.00;100276.72;10361969;28;20076;-74
2022/03/31 03:14:13;;;;;;;11.57;4.03;;;;;;;1.65;100.00;100273.88;10378661;28;20442;-74
2022/03/31 03:19:14;;;;;;;4.32;3.92;;;;;;;1.71;100.00;100282.09;10379496;28;20033;-74
2022/03/31 03:24:15;;;;;;;4.10;3.65;;;;;;;1.73;100.00;100273.97;10376712;28;20034;-75
2022/03/31 03:29:16;;;;;;;4.55;4.15;;;;;;;1.72;100.00;100273.09;10382080;28;20463;-74
2022/03/31 03:34:16;;;;;;;9.20;4.13;;;;;;;1.77;100.00;100292.16;10384684;28;20038;-74
2022/03/31 03:39:17;;;;;;;4.22;3.83;;;;;;;1.84;100.00;100282.53;10377100;28;20125;-74
2022/03/31 03:44:23;;;;;;;5.47;4.82;;;;;;;1.95;100.00;100288.63;10393275;28;20055;-75
2022/03/31 03:49:24;;;;;;;4.50;3.90;;;;;;;1.95;100.00;100277.94;10377377;28;20116;-75
2022/03/31 03:54:26;;;;;;;5.00;3.60;;;;;;;1.91;100.00;100274.72;10376731;28;20377;-74
2022/03/31 03:59:29;;;;;;;3.95;3.40;;;;;;;1.98;100.00;100266.94;10378461;28;20030;-74
2022/03/31 04:04:32;;;;;;;6.07;3.50;;;;;;;2.02;100.00;100269.16;10375435;28;20030;-74
2022/03/31 04:09:33;;;;;;;4.10;3.65;;;;;;;2.15;100.00;100267.88;10376205;28;20044;-74
2022/03/31 04:14:33;;;;;;;3.92;3.55;;;;;;;2.14;100.00;100263.53;10376318;28;20060;-75
2022/03/31 04:19:34;;;;;;;5.50;4.00;;;;;;;2.19;100.00;100270.06;10375487;28;20033;-74
2022/03/31 04:24:34;;;;;;;4.15;3.75;;;;;;;2.18;100.00;100264.91;10374598;28;20065;-74
2022/03/31 04:29:34;;;;;;;5.10;4.68;;;;;;;2.21;100.00;100262.75;10359388;28;20422;-74
2022/03/31 04:34:35;;;;;;;4.78;3.67;;;;;;;2.23;100.00;100259.91;10376188;28;20038;-74
2022/03/31 04:39:36;;;;;;;5.80;4.40;;;;;;;2.20;100.00;100249.53;10374794;28;20053;-74
2022/03/31 04:44:39;;;;;;;6.28;4.68;;;;;;;2.17;100.00;100252.53;10376416;28;20060;-74
2022/03/31 04:49:39;;;;;;;7.75;5.32;;;;;;;2.10;100.00;100247.81;10375357;28;20111;-75
2022/03/31 04:54:43;;;;;;;5.03;4.60;;;;;;;2.10;100.00;100253.16;10375163;28;20432;-74
2022/03/31 04:59:44;;;;;;;5.65;5.13;;;;;;;2.09;100.00;100247.97;10385246;28;20045;-73
2022/03/31 05:04:45;;;;;;;6.05;5.35;;;;;;;2.09;100.00;100251.50;10388340;28;20378;-74
2022/03/31 05:09:45;;;;;;;11.77;6.28;;;;;;;2.00;100.00;100244.41;10294089;28;20133;-74
2022/03/31 05:14:46;;;;;;;6.03;4.93;;;;;;;1.98;100.00;100238.41;10388741;28;20030;-75
2022/03/31 05:19:46;;;;;;;9.93;6.88;;;;;;;2.01;100.00;100258.59;10388171;28;20029;-74
2022/03/31 05:24:46;;;;;;;5.70;4.82;;;;;;;1.97;100.00;100239.41;10387279;28;20026;-75
2022/03/31 05:29:47;;;;;;;7.18;6.18;;;;;;;1.98;100.00;100243.75;10386261;28;20033;-75
2022/03/31 05:34:47;;;;;;;8.85;4.72;;;;;;;2.05;100.00;100242.13;10387685;28;20381;-74
2022/03/31 05:39:48;;;;;;;8.95;5.80;;;;;;;2.12;100.00;100241.50;10387647;28;20486;-75
2022/03/31 05:44:48;;;;;;;6.20;5.32;;;;;;;2.18;100.00;100241.69;10386292;28;20030;-75
2022/03/31 05:49:49;;;;;;;7.68;6.15;;;;;;;2.20;100.00;100239.72;10388246;28;20171;-75
2022/03/31 05:54:49;;;;;;;6.97;6.28;;;;;;;2.14;100.00;100239.47;10393463;28;20120;-75
2022/03/31 05:59:53;;;;;;;8.65;6.97;;;;;;;2.09;100.00;100232.78;10393387;28;20064;-75
2022/03/31 06:04:53;;;;;;;10.20;7.57;;;;;;;2.06;100.00;100238.44;10406219;28;20034;-75
2022/03/31 06:09:54;;;;;;;7.72;6.18;;;;;;;2.05;100.00;100238.63;10386521;28;20061;-74
2022/03/31 06:14:59;;;;;;;11.93;6.28;;;;;;;2.13;100.00;100243.16;10386250;28;20054;-75
2022/03/31 06:19:59;;;;;;;18.38;6.10;;;;;;;2.21;100.00;100245.88;10379869;28;20053;-74
2022/03/31 06:25:00;;;;;;;8.88;6.95;;;;;;;2.37;100.00;100242.44;10378950;28;20034;-75
2022/03/31 06:30:06;;;;;;;6.85;4.63;;;;;;;2.68;100.00;100250.72;10380632;28;20030;-75
2022/03/31 06:35:14;;;;;;;8.18;5.45;;;;;;;2.66;100.00;100250.06;10379316;28;20370;-74
2022/03/31 06:40:17;;;;;;;9.40;5.50;;;;;;;2.66;100.00;100253.56;10380324;28;20378;-75
2022/03/31 06:45:23;;;;;;;5.30;4.80;;;;;;;2.71;100.00;100242.38;10378302;28;20030;-74
2022/03/31 06:50:24;;;;;;;10.88;5.63;;;;;;;3.15;100.00;100242.16;10379437;28;20110;-75
2022/03/31 06:55:25;;;;;;;5.68;5.00;;;;;;;3.76;100.00;100239.97;10380165;28;20038;-75
2022/03/31 07:00:26;;;;;;;7.78;5.13;;;;;;;3.55;100.00;100241.34;10380935;28;20040;-76
2022/03/31 07:05:29;;;;;;;8.18;4.88;;;;;;;3.53;100.00;100237.16;10377983;28;20026;-76
2022/03/31 07:10:29;;;;;;;13.73;3.78;;;;;;;3.65;100.00;100230.44;10379089;28;20421;-77
2022/03/31 07:15:31;;;;;;;4.88;3.28;;;;;;;3.80;100.00;100249.31;10381103;28;20044;-77
2022/03/31 07:20:34;;;;;;;7.28;3.45;;;;;;;4.14;100.00;100235.69;10377317;28;20133;-77
2022/03/31 07:25:35;;;;;;;4.10;3.60;;;;;;;4.32;100.00;100241.66;10377491;28;20026;-77
2022/03/31 07:30:36;;;;;;;4.60;2.72;;;;;;;4.31;100.00;100240.00;10376583;28;20033;-78
2022/03/31 07:35:41;;;;;;;8.18;3.72;;;;;;;4.36;100.00;100237.63;10376394;28;20481;-78
2022/03/31 07:40:42;;;;;;;7.10;3.13;;;;;;;4.80;100.00;100233.56;10377494;28;20440;-78
2022/03/31 07:45:42;;;;;;;3.80;3.22;;;;;;;4.87;100.00;100237.22;10359177;28;20025;-78
2022/03/31 07:50:43;;;;;;;7.45;4.20;;;;;;;5.39;100.00;100241.88;10375941;28;20026;-79
2022/03/31 07:55:43;;;;;;;11.82;3.20;;;;;;;5.44;100.00;100230.63;10359363;28;20029;-79
2022/03/31 08:00:50;;;;;;;6.45;3.33;;;;;;;5.45;100.00;100225.06;10362671;28;20052;-79
2022/03/31 08:05:51;;;;;;;3.95;3.35;;;;;;;5.45;100.00;100221.53;10376873;28;20037;-79
2022/03/31 08:10:53;;;;;;;5.70;4.13;;;;;;;5.32;100.00;100222.97;10375799;28;20049;-79
2022/03/31 08:15:53;;;;;;;7.88;4.40;;;;;;;5.40;100.00;100216.72;10375715;28;20116;-79
2022/03/31 08:20:55;;;;;;;3.97;3.67;;;;;;;5.54;100.00;100217.78;10360332;28;20030;-80
2022/03/31 08:26:00;;;;;;;4.28;3.85;;;;;;;6.00;100.00;100218.53;10359273;28;20072;-80
2022/03/31 08:31:00;;;;;;;4.47;3.42;;;;;;;6.44;100.00;100223.03;10378379;28;20073;-79
2022/03/31 08:36:01;;;;;;;4.65;3.33;;;;;;;6.58;100.00;100221.38;10374071;28;20034;-80
2022/03/31 08:41:03;;;;;;;6.43;3.05;;;;;;;7.08;100.00;100224.19;10377100;28;20046;-80
2022/03/31 08:46:05;;;;;;;2.92;2.72;;;;;;;6.94;100.00;100215.16;10359747;28;20080;-80
2022/03/31 08:51:05;;;;;;;5.95;3.65;;;;;;;6.57;100.00;100218.84;10367135;28;20065;-80
2022/03/31 08:56:09;;;;;;;5.38;3.60;;;;;;;6.13;100.00;100217.88;10392315;28;20091;-80
2022/03/31 09:01:16;;;;;;;7.28;3.58;;;;;;;5.79;100.00;100216.53;10379705;28;20389;-81
2022/03/31 09:06:21;;;;;;;3.35;2.97;;;;;;;5.42;100.00;100220.03;10374746;28;20038;-80
2022/03/31 09:11:28;;;;;;;2.95;2.75;;;;;;;5.23;100.00;100225.91;10343236;28;20058;-80
2022/03/31 09:16:43;;;;;;;3.70;3.05;;;;;;;5.02;100.00;100218.53;10374183;28;20034;-79
2022/03/31 09:21:54;;;;;;;2.97;2.88;;;;;;;4.85;100.00;100229.38;10356719;28;20036;-80
2022/03/31 09:26:56;;;;;;;3.55;3.33;;;;;;;5.03;100.00;100220.19;10357814;28;20030;-79
2022/03/31 09:32:10;;;;;;;4.15;3.22;;;;;;;5.39;100.00;100230.31;10375824;28;20037;-80
2022/03/31 09:37:11;;;;;;;3.53;2.55;;;;;;;5.33;100.00;100231.88;10379633;28;20108;-80
2022/03/31 09:42:13;;;;;;;4.95;3.60;;;;;;;6.04;100.00;100221.69;10357130;28;20040;-80
2022/03/31 09:47:13;;;;;;;2.50;2.30;;;;;;;6.92;100.00;100211.81;10382315;28;20081;-79
2022/03/31 09:52:13;;;;;;;6.75;2.00;;;;;;;7.38;100.00;100214.97;10395976;28;20034;-79
2022/03/31 09:57:14;;;;;;;3.63;2.20;;;;;;;7.63;100.00;100209.19;10389848;28;20033;-79
2022/03/31 10:02:14;;;;;;;2.67;2.33;;;;;;;8.21;100.00;100204.38;10371650;28;20421;-80
2022/03/31 10:07:15;;;;;;;1.95;1.85;;;;;;;8.64;100.00;100196.09;10382595;28;20462;-80
2022/03/31 10:12:32;;;;;;;1.77;1.73;;;;;;;8.40;100.00;100205.53;10364664;28;20497;-80
2022/03/31 10:17:32;;;;;;;3.30;3.08;;;;;;;8.58;100.00;100195.06;10364858;28;20149;-80
2022/03/31 10:27:52;;;;;;;1.85;1.75;;;;;;;12.19;100.00;100174.63;10380336;28;20030;-80
2022/03/31 10:32:52;;;;;;;1.30;1.30;;;;;;;11.03;100.00;100185.00;10378818;28;20026;-80
2022/03/31 10:37:53;;;;;;;2.07;1.97;;;;;;;11.82;100.00;100175.41;10378723;28;20075;-80
2022/03/31 10:42:55;;;;;;;3.33;2.10;;;;;;;12.02;100.00;100164.38;10378835;28;20130;-80
2022/03/31 10:47:55;;;;;;;2.50;2.30;;;;;;;11.68;100.00;100170.31;10379331;28;20025;-79
2022/03/31 10:53:01;;;;;;;2.38;2.10;;;;;;;12.64;100.00;100158.03;10361707;28;20044;-79
2022/03/31 10:58:02;;;;;;;1.90;1.80;;;;;;;12.46;100.00;100151.56;10377477;28;20034;-80
2022/03/31 11:03:02;;;;;;;1.25;1.25;;;;;;;11.56;100.00;100143.94;10378785;28;20121;-79
2022/03/31 11:08:07;;;;;;;2.20;2.10;;;;;;;10.83;100.00;100149.91;10377767;28;20038;-80
2022/03/31 11:13:08;;;;;;;1.67;1.65;;;;;;;10.16;100.00;100152.06;10377376;28;20129;-79
2022/03/31 11:18:08;;;;;;;2.22;2.13;;;;;;;9.78;100.00;100151.94;10377329;28;20598;-80
2022/03/31 11:23:08;;;;;;;3.55;1.58;;;;;;;9.37;100.00;100146.78;10376642;28;20112;-79
2022/03/31 11:28:11;;;;;;;3.08;2.60;;;;;;;8.84;100.00;100148.41;10379462;28;20095;-79
2022/03/31 11:33:14;;;;;;;1.65;1.65;;;;;;;8.60;100.00;100141.69;10389158;28;20485;-80
2022/03/31 11:38:17;;;;;;;2.33;2.03;;;;;;;8.58;100.00;100140.22;10385044;28;20026;-79
2022/03/31 11:43:18;;;;;;;2.45;2.17;;;;;;;8.67;100.00;100135.47;10378964;28;20038;-80
2022/03/31 11:48:21;;;;;;;2.58;2.38;;;;;;;8.61;100.00;100124.47;10378724;28;20046;-80
2022/03/31 11:53:30;;;;;;;2.40;2.20;;;;;;;8.31;100.00;100128.47;10362424;28;20038;-79
2022/03/31 11:58:34;;;;;;;2.60;2.45;;;;;;;8.11;100.00;100134.63;10376718;28;20389;-79
2022/03/31 12:03:35;;;;;;;2.40;2.20;;;;;;;8.09;100.00;100136.69;10359307;28;20377;-80
2022/03/31 12:08:38;;;;;;;2.28;2.17;;;;;;;7.75;100.00;100139.38;10375016;28;20066;-80
2022/03/31 12:13:48;;;;;;;2.67;2.50;;;;;;;7.83;100.00;100139.25;10375328;28;20387;-79
2022/03/31 12:18:58;;;;;;;2.00;1.70;;;;;;;8.05;100.00;100127.34;10375183;28;20438;-80
2022/03/31 12:24:01;;;;;;;2.35;2.25;;;;;;;8.01;100.00;100133.31;10376963;28;20119;-80
2022/03/31 12:29:02;;;;;;;2.63;1.98;;;;;;;7.35;100.00;100139.13;10375649;28;20072;-80
2022/03/31 12:34:03;;;;;;;6.80;3.85;;;;;;;6.98;100.00;100138.38;10374247;28;20539;-80
2022/03/31 12:39:05;;;;;;;3.30;2.85;;;;;;;6.89;100.00;100143.06;10360552;28;20041;-80
2022/03/31 12:44:10;;;;;;;4.32;3.75;;;;;;;6.79;100.00;100137.16;10376868;28;20081;-80
2022/03/31 12:49:12;;;;;;;3.45;3.20;;;;;;;6.56;100.00;100140.03;10374818;28;20033;-80
2022/03/31 12:54:29;;;;;;;4.70;4.22;;;;;;;6.55;100.00;100141.06;10377988;28;20378;-80
2022/03/31 12:59:30;;;;;;;;;;;;;;;6.42;100.00;100140.91;10359970;28;20034;-79
2022/03/31 13:04:30;;;;;;;3.30;3.00;;;;;;;5.98;100.00;100144.47;10358685;28;19936;-80
2022/03/31 13:09:31;;;;;;;3.30;3.03;;;;;;;5.10;100.00;100149.50;10374735;28;20072;-78
2022/03/31 13:14:32;;;;;;;2.08;1.98;;;;;;;4.37;100.00;100150.88;10376585;28;20054;-75
2022/03/31 13:19:32;;;;;;;3.80;2.78;;;;;;;4.15;100.00;100162.34;10376353;28;20080;-77
2022/03/31 13:24:33;;;;;;;2.22;2.13;;;;;;;4.07;100.00;100170.41;10382308;28;20030;-76
2022/03/31 13:29:34;;;;;;;2.95;2.75;;;;;;;3.91;100.00;100176.66;10381201;28;20026;-75
2022/03/31 13:34:35;;;;;;;3.55;3.22;;;;;;;3.58;100.00;100170.56;10381284;28;20442;-74
2022/03/31 13:39:36;;;;;;;2.70;2.55;;;;;;;3.84;100.00;100171.16;10364497;28;20424;-74
2022/03/31 13:44:37;;;;;;;3.50;3.30;;;;;;;3.75;100.00;100172.19;10382824;28;20033;-74
2022/03/31 13:49:38;;;;;;;8.98;4.10;;;;;;;3.91;100.00;100171.31;10368572;28;20533;-76
2022/03/31 13:54:39;;;;;;;4.18;3.78;;;;;;;3.86;100.00;100182.53;10385980;28;20454;-75
2022/03/31 14:05:00;;;;;;;3.85;3.47;;;;;;;3.73;100.00;100180.41;10380792;28;20046;-75
2022/03/31 14:10:01;;;;;;;3.53;3.13;;;;;;;3.80;100.00;100183.22;10385939;28;20022;-75
2022/03/31 14:15:02;;;;;;;3.63;3.35;;;;;;;3.60;100.00;100171.22;10386180;28;20038;-75
2022/03/31 14:20:04;;;;;;;3.92;3.63;;;;;;;3.67;100.00;100180.22;10384927;28;20030;-75
2022/03/31 14:25:05;;;;;;;5.28;4.13;;;;;;;3.72;100.00;100172.53;10381598;28;20030;-74
2022/03/31 14:30:08;;;;;;;4.88;4.47;;;;;;;3.63;100.00;100181.56;10377988;28;20042;-75
2022/03/31 14:35:08;;;;;;;5.25;3.90;;;;;;;3.55;100.00;100187.78;10379920;28;20032;-75
2022/03/31 14:40:09;;;;;;;4.30;3.90;;;;;;;3.49;100.00;100183.94;10362403;28;20113;-75
2022/03/31 14:45:10;;;;;;;4.90;3.63;;;;;;;3.47;100.00;100180.59;10381228;28;20041;-75
2022/03/31 14:50:10;;;;;;;4.38;3.90;;;;;;;3.64;100.00;100186.78;10380352;28;20034;-76
2022/03/31 14:55:11;;;;;;;3.90;3.53;;;;;;;3.97;100.00;100195.56;10362757;28;20394;-75
2022/03/31 15:00:12;;;;;;;2.40;2.30;;;;;;;4.09;100.00;100182.63;10393888;28;20172;-76
2022/03/31 15:05:13;;;;;;;3.88;3.50;;;;;;;4.18;100.00;100176.25;10378717;28;20030;-77
2022/03/31 15:15:33;;;;;;;3.55;3.25;;;;;;;4.20;100.00;100192.13;10378160;28;20485;-77
2022/03/31 15:20:34;;;;;;;3.35;3.15;;;;;;;4.29;100.00;100196.44;10377283;28;20038;-77
2022/03/31 15:25:34;;;;;;;3.22;3.00;;;;;;;4.07;100.00;100186.50;10378223;28;20034;-77
2022/03/31 15:30:35;;;;;;;3.65;3.35;;;;;;;3.97;100.00;100182.16;10377562;28;20045;-77
2022/03/31 15:35:36;;;;;;;2.90;2.75;;;;;;;3.81;100.00;100189.41;10377154;28;20034;-77
2022/03/31 15:40:37;;;;;;;3.80;3.50;;;;;;;3.84;100.00;100184.56;10361537;28;20029;-77
2022/03/31 15:45:37;;;;;;;3.65;3.45;;;;;;;3.70;100.00;100179.88;10377446;28;20458;-76
2022/03/31 15:50:38;;;;;;;3.63;3.33;;;;;;;3.66;100.00;100184.75;10376474;28;20429;-77
2022/03/31 15:55:38;;;;;;;3.03;2.83;;;;;;;3.77;100.00;100186.25;10376119;28;20038;-76
2022/03/31 16:00:39;;;;;;;3.38;3.17;;;;;;;3.81;100.00;100187.56;10376547;28;20036;-77
2022/03/31 16:05:39;;;;;;;4.30;3.95;;;;;;;3.57;100.00;100184.94;10375445;28;20049;-77
2022/03/31 16:10:41;;;;;;;4.03;3.67;;;;;;;3.45;100.00;100182.63;10376524;28;20050;-77
2022/03/31 16:15:42;;;;;;;3.97;3.58;;;;;;;3.51;100.00;100189.16;10391727;28;20076;-78
2022/03/31 16:20:43;;;;;;;3.63;3.30;;;;;;;3.65;100.00;100182.25;10376660;28;20107;-77
2022/03/31 16:25:44;;;;;;;3.08;2.85;;;;;;;3.82;100.00;100178.53;10376805;28;20095;-78
2022/03/31 16:30:44;;;;;;;4.35;3.92;;;;;;;3.55;100.00;100176.25;10376493;28;20458;-77
2022/03/31 16:35:45;;;;;;;3.97;3.65;;;;;;;3.45;100.00;100174.59;10376519;28;20038;-78
2022/03/31 16:40:45;;;;;;;3.03;2.83;;;;;;;3.30;100.00;100181.63;10375974;28;20034;-78
2022/03/31 16:45:46;;;;;;;3.22;2.92;;;;;;;3.10;100.00;100181.13;10379206;28;20026;-77
2022/03/31 16:50:46;;;;;;;2.92;2.70;;;;;;;2.96;100.00;100171.06;10383974;28;20073;-78
2022/03/31 16:55:47;;;;;;;3.42;2.70;;;;;;;2.84;100.00;100183.09;10386555;28;20497;-78
2022/03/31 17:00:47;;;;;;;3.38;3.08;;;;;;;2.72;100.00;100187.94;10379288;28;20042;-78
2022/03/31 17:05:47;;;;;;;4.78;4.03;;;;;;;2.75;100.00;100193.78;10373872;28;20069;-78
2022/03/31 17:10:48;;;;;;;2.40;2.30;;;;;;;2.65;100.00;100178.88;10340658;28;20141;-79
2022/03/31 17:15:49;;;;;;;2.97;2.88;;;;;;;2.58;100.00;100193.91;10377268;28;20053;-78
2022/03/31 17:20:50;;;;;;;3.10;2.90;;;;;;;2.48;100.00;100184.19;10372876;28;20401;-78
2022/03/31 17:25:50;;;;;;;3.03;2.72;;;;;;;2.38;100.00;100198.69;10374845;28;20255;-78
2022/03/31 17:30:51;;;;;;;3.03;2.83;;;;;;;2.40;100.00;100202.06;10374662;28;20045;-81
2022/03/31 17:35:51;;;;;;;2.28;2.17;;;;;;;2.35;100.00;100196.34;10373017;28;20034;-78
2022/03/31 17:40:52;;;;;;;2.65;2.45;;;;;;;2.18;100.00;100196.28;10382254;28;20095;-78
2022/03/31 17:45:53;;;;;;;3.72;3.28;;;;;;;2.21;100.00;100197.81;10389392;28;20042;-78
2022/03/31 17:50:54;;;;;;;2.65;2.55;;;;;;;2.32;100.00;100201.00;10379817;28;20481;-79
2022/03/31 17:55:54;;;;;;;3.75;3.45;;;;;;;2.28;100.00;100196.16;10373473;28;20036;-79
2022/03/31 18:00:55;;;;;;;3.28;3.08;;;;;;;2.36;100.00;100196.16;10356452;28;20061;-80
2022/03/31 18:05:56;;;;;;;4.05;3.53;;;;;;;2.26;100.00;100200.81;10376343;28;20108;-80
2022/03/31 18:10:56;;;;;;;2.78;2.58;;;;;;;2.29;100.00;100198.66;10379600;28;20520;-79
2022/03/31 18:15:57;;;;;;;3.45;3.15;;;;;;;2.18;100.00;100204.28;10377574;28;20529;-80
2022/03/31 18:20:57;;;;;;;3.72;3.42;;;;;;;2.08;100.00;100209.75;10379319;28;20080;-80
2022/03/31 18:25:58;;;;;;;4.18;3.85;;;;;;;2.06;100.00;100208.25;10377367;28;20069;-79
2022/03/31 18:36:20;;;;;;;4.53;4.13;;;;;;;2.15;100.00;100203.78;10377849;28;20545;-79
2022/03/31 18:41:21;;;;;;;4.90;4.50;;;;;;;2.18;100.00;100200.78;10377204;28;20030;-77
2022/03/31 18:46:22;;;;;;;4.43;4.13;;;;;;;2.06;100.00;100203.72;10377246;28;20026;-76
2022/03/31 18:51:22;;;;;;;5.50;5.00;;;;;;;2.10;100.00;100202.41;10381503;28;20042;-79
2022/03/31 18:56:23;;;;;;;3.70;3.47;;;;;;;2.05;100.00;100194.06;10377260;28;20545;-79
2022/03/31 19:01:23;;;;;;;5.85;5.32;;;;;;;1.96;100.00;100205.69;10377579;28;20060;-78
2022/03/31 19:11:43;;;;;;;5.35;4.97;;;;;;;1.80;100.00;100206.44;10338845;28;1105192;-76
2022/03/31 19:16:44;;;;;;;4.75;4.28;;;;;;;1.71;100.00;100206.53;10377068;28;20045;-76
2022/03/31 19:21:45;;;;;;;6.70;6.20;;;;;;;1.55;100.00;100215.28;10379135;28;20100;-75
2022/03/31 19:26:47;;;;;;;5.47;5.07;;;;;;;1.39;100.00;100224.81;10377036;28;20428;-74
2022/03/31 19:31:47;;;;;;;7.78;6.97;;;;;;;1.27;100.00;100234.06;10379475;28;20029;-74
2022/03/31 19:36:48;;;;;;;6.28;5.70;;;;;;;1.22;100.00;100238.19;10385622;28;20527;-73
2022/03/31 19:41:48;;;;;;;7.20;6.50;;;;;;;1.15;100.00;100238.81;10378153;28;20045;-75
2022/03/31 19:46:49;;;;;;;7.32;6.63;;;;;;;0.99;100.00;100245.78;10377454;28;20037;-74
2022/03/31 19:51:50;;;;;;;6.80;6.10;;;;;;;0.76;100.00;100242.72;10379601;28;20044;-74
2022/03/31 19:56:51;;;;;;;8.48;6.80;;;;;;;0.57;100.00;100255.19;10376979;28;20044;-77
2022/03/31 20:01:52;;;;;;;8.48;7.72;;;;;;;0.50;100.00;100263.94;10377779;28;20069;-75
2022/03/31 20:06:52;;;;;;;6.97;6.28;;;;;;;0.40;100.00;100271.97;10375673;28;20128;-75
2022/03/31 20:11:57;;;;;;;7.47;6.78;;;;;;;0.34;100.00;100267.22;10376747;28;20077;-74
2022/03/31 20:16:57;;;;;;;5.93;5.53;;;;;;;0.26;100.00;100272.47;10375264;28;20030;-74
2022/03/31 20:21:58;;;;;;;7.60;6.88;;;;;;;0.24;100.00;100264.59;10375217;28;20109;-74
2022/03/31 20:26:59;;;;;;;6.95;6.35;;;;;;;0.21;100.00;100295.03;10376243;28;20030;-73
2022/03/31 20:32:00;;;;;;;8.27;6.88;;;;;;;0.19;100.00;100291.69;10375937;28;20120;-72
2022/03/31 20:37:00;;;;;;;8.48;6.30;;;;;;;0.15;100.00;100308.91;10376864;28;20412;-72
2022/03/31 20:42:01;;;;;;;12.20;6.88;;;;;;;0.15;100.00;100308.91;10373926;28;20113;-73
2022/03/31 20:47:02;;;;;;;7.65;6.40;;;;;;;0.18;100.00;100321.94;10376625;28;20525;-72
2022/03/31 20:52:06;;;;;;;8.88;7.97;;;;;;;0.12;100.00;100325.16;10376083;28;20038;-73
2022/03/31 20:57:06;;;;;;;8.40;7.10;;;;;;;0.15;100.00;100332.88;10375882;28;20121;-74
2022/03/31 21:02:07;;;;;;;7.05;5.90;;;;;;;0.17;100.00;100357.53;10377443;28;20129;-74
2022/03/31 21:07:07;;;;;;;7.00;6.28;;;;;;;0.10;100.00;100343.13;10375401;28;20092;-74
2022/03/31 21:12:08;;;;;;;9.32;7.60;;;;;;;0.08;100.00;100350.41;10374159;28;20050;-74
2022/03/31 21:17:09;;;;;;;6.10;5.60;;;;;;;0.11;100.00;100359.94;10390287;28;20103;-75
2022/03/31 21:22:10;;;;;;;8.13;6.82;;;;;;;0.13;100.00;100366.81;10374786;28;20363;-75
2022/03/31 21:27:13;;;;;;;6.97;6.38;;;;;;;0.09;100.00;100369.88;10374117;28;20486;-75
2022/03/31 21:32:13;;;;;;;6.85;6.35;;;;;;;0.06;100.00;100380.81;10375505;28;20038;-75
2022/03/31 21:37:14;;;;;;;4.97;4.63;;;;;;;-0.03;100.00;100402.00;10381065;28;20449;-75
2022/03/31 21:42:15;;;;;;;5.20;4.78;;;;;;;0.04;100.00;100402.25;10386115;28;20116;-76
2022/03/31 21:47:15;;;;;;;6.22;5.63;;;;;;;0.03;100.00;100419.19;10385397;28;20037;-75
2022/03/31 21:52:16;;;;;;;4.75;4.45;;;;;;;0.01;100.00;100439.81;10381560;28;20168;-75
2022/03/31 21:57:16;;;;;;;4.47;4.10;;;;;;;0.01;100.00;100433.66;10382695;28;20191;-75
2022/03/31 22:02:17;;;;;;;6.80;6.18;;;;;;;-0.07;100.00;100459.13;10363607;28;20053;-75
2022/03/31 22:07:21;;;;;;;5.05;4.55;;;;;;;-0.02;100.00;100466.72;10380629;28;20156;-74
2022/03/31 22:12:22;;;;;;;7.15;4.95;;;;;;;0.04;100.00;100476.81;10383563;28;20054;-75
2022/03/31 22:17:23;;;;;;;6.72;6.05;;;;;;;0.00;100.00;100478.06;10375550;28;20034;-75
2022/03/31 22:22:23;;;;;;;4.30;4.00;;;;;;;-0.06;100.00;100484.78;10383611;28;20120;-76
2022/03/31 22:27:24;;;;;;;3.83;3.35;;;;;;;-0.02;100.00;100485.34;10382618;28;20037;-75
2022/03/31 22:32:24;;;;;;;6.43;5.63;;;;;;;-0.10;100.00;100509.97;10379973;28;20517;-74
2022/03/31 22:37:24;;;;;;;4.90;4.40;;;;;;;-0.09;100.00;100500.19;10380340;28;20069;-74
2022/03/31 22:42:25;;;;;;;5.20;4.70;;;;;;;-0.13;100.00;100514.72;10379773;28;20482;-74
2022/03/31 22:47:25;;;;;;;3.60;3.22;;;;;;;-0.15;100.00;100527.34;10378919;28;20030;-76
2022/03/31 22:52:25;;;;;;;3.72;3.42;;;;;;;-0.18;100.00;100536.44;10361269;28;20060;-74
2022/03/31 22:57:26;;;;;;;3.30;3.05;;;;;;;-0.17;100.00;100527.47;10382043;28;20030;-74
2022/03/31 23:02:26;;;;;;;6.38;4.72;;;;;;;-0.13;100.00;100533.38;10377974;28;20033;-74
2022/03/31 23:07:28;;;;;;;4.70;4.30;;;;;;;-0.13;100.00;100528.88;10376807;28;20046;-75
2022/03/31 23:12:29;;;;;;;3.47;3.17;;;;;;;-0.15;100.00;100525.53;10393260;28;20498;-74
2022/03/31 23:17:32;;;;;;;4.35;3.97;;;;;;;-0.17;100.00;100529.31;10377392;28;20046;-74
2022/03/31 23:22:36;;;;;;;4.95;4.47;;;;;;;-0.25;100.00;100541.47;10379950;28;20049;-74
2022/03/31 23:27:37;;;;;;;4.75;4.43;;;;;;;-0.21;100.00;100542.03;10377958;28;20038;-73
2022/03/31 23:32:37;;;;;;;4.70;4.40;;;;;;;-0.29;100.00;100539.22;10378545;28;20037;-74
2022/03/31 23:37:41;;;;;;;4.97;4.55;;;;;;;-0.32;100.00;100543.00;10376881;28;20360;-74